Time;durP1;ratioP1;P1;durP2;ratioP2;P2;SDS_P1;SDS_P2;PMS_P1;PMS_P2;Temp;Humidity;BMP_temperature;BMP_pressure;BME280_temperature;BME280_humidity;BME280_pressure;Samples;Min_cycle;Max_cycle;Signal;HPM_P1;HPM_P2
2023/05/27 00:01:25;;;;;;;15.55;3.60;;;;;;;7.08;100.00;103051.75;10377208;28;20080;-67
2023/05/27 00:06:25;;;;;;;13.05;3.70;;;;;;;7.06;100.00;103051.91;10376361;28;20053;-68
2023/05/27 00:11:26;;;;;;;11.77;4.40;;;;;;;7.03;100.00;103059.66;10377743;28;20069;-65
2023/05/27 00:16:27;;;;;;;12.88;3.65;;;;;;;6.98;100.00;103062.06;10360278;28;20668;-68
2023/05/27 00:21:28;;;;;;;17.60;3.45;;;;;;;6.96;100.00;103064.13;10376938;28;20445;-68
2023/05/27 00:26:28;;;;;;;12.88;3.78;;;;;;;6.92;100.00;103063.63;10375764;28;20041;-67
2023/05/27 00:31:29;;;;;;;9.65;3.10;;;;;;;6.92;100.00;103060.88;10359929;28;20046;-67
2023/05/27 00:36:31;;;;;;;20.30;4.50;;;;;;;6.89;100.00;103063.13;10376988;28;20034;-68
2023/05/27 00:41:32;;;;;;;16.58;3.47;;;;;;;6.86;100.00;103058.84;10374026;28;20033;-67
2023/05/27 00:46:32;;;;;;;15.35;3.33;;;;;;;6.41;100.00;102991.94;10356627;28;20066;-68
2023/05/27 00:51:33;;;;;;;10.75;3.97;;;;;;;6.70;100.00;103045.19;10373292;28;20109;-68
2023/05/27 00:56:33;;;;;;;14.18;2.63;;;;;;;6.59;100.00;103047.28;10373848;28;20124;-65
2023/05/27 01:01:36;;;;;;;15.70;3.13;;;;;;;6.61;100.00;103053.44;10375519;28;20089;-67
2023/05/27 01:06:48;;;;;;;14.65;3.20;;;;;;;6.67;100.00;103050.00;10375247;28;20042;-68
2023/05/27 01:12:08;;;;;;;12.63;4.80;;;;;;;6.73;100.00;103050.34;10356471;28;20046;-68
2023/05/27 01:17:09;;;;;;;13.90;3.95;;;;;;;6.66;100.00;103039.25;10315480;28;20039;-67
2023/05/27 01:22:14;;;;;;;22.98;4.63;;;;;;;6.78;100.00;103046.06;10365306;28;20049;-68
2023/05/27 01:27:15;;;;;;;25.33;5.72;;;;;;;6.81;100.00;103039.38;10395282;28;20489;-67
2023/05/27 01:32:20;;;;;;;14.85;3.45;;;;;;;6.75;100.00;103029.97;10413494;28;20060;-68
2023/05/27 01:37:21;;;;;;;11.63;2.60;;;;;;;6.62;100.00;103022.31;10412387;28;20041;-68
2023/05/27 01:42:22;;;;;;;10.63;2.85;;;;;;;6.66;100.00;103037.34;10379934;28;20037;-68
2023/05/27 01:47:22;;;;;;;19.98;4.35;;;;;;;6.74;100.00;103032.88;10392084;28;20045;-67
2023/05/27 01:52:23;;;;;;;16.20;4.88;;;;;;;6.79;100.00;103041.41;10420985;28;20183;-68
2023/05/27 01:57:25;;;;;;;17.38;4.15;;;;;;;6.74;100.00;103041.06;10382614;28;20075;-68
2023/05/27 02:02:26;;;;;;;25.25;3.72;;;;;;;6.72;100.00;103034.94;10398303;28;20520;-67
2023/05/27 02:07:27;;;;;;;14.85;3.72;;;;;;;6.73;100.00;103040.22;10390140;28;20057;-68
2023/05/27 02:12:28;;;;;;;18.65;3.40;;;;;;;6.77;100.00;103035.25;10358991;28;20034;-68
2023/05/27 02:17:28;;;;;;;15.75;3.72;;;;;;;6.84;100.00;103028.03;10372422;28;20025;-67
2023/05/27 02:22:29;;;;;;;18.08;4.18;;;;;;;6.92;100.00;103024.44;10387372;28;20041;-67
2023/05/27 02:27:30;;;;;;;19.90;3.85;;;;;;;6.89;100.00;103024.78;10355537;28;20037;-67
2023/05/27 02:32:31;;;;;;;15.20;3.30;;;;;;;6.53;100.00;102976.84;10388351;28;20040;-67
2023/05/27 02:37:33;;;;;;;13.68;3.60;;;;;;;6.66;100.00;103020.94;10412075;28;20044;-67
2023/05/27 02:42:33;;;;;;;19.55;3.47;;;;;;;6.55;100.00;103032.25;10405325;28;20029;-68
2023/05/27 02:47:34;;;;;;;11.05;3.13;;;;;;;6.48;100.00;103031.22;10417175;28;20132;-68
2023/05/27 02:52:34;;;;;;;14.25;3.90;;;;;;;6.51;100.00;103030.91;10418468;28;20068;-68
2023/05/27 02:57:35;;;;;;;19.08;5.80;;;;;;;6.58;100.00;103045.56;10408905;28;20092;-66
2023/05/27 03:02:35;;;;;;;19.98;5.00;;;;;;;6.71;100.00;103039.56;10406971;28;20038;-66
2023/05/27 03:07:36;;;;;;;11.63;3.33;;;;;;;6.79;100.00;103025.00;10424943;28;20101;-66
2023/05/27 03:12:36;;;;;;;13.30;4.63;;;;;;;6.82;100.00;103024.63;10390741;28;20044;-69
2023/05/27 03:17:37;;;;;;;16.27;4.20;;;;;;;6.85;100.00;103029.75;10408410;28;20030;-69
2023/05/27 03:22:38;;;;;;;15.52;4.00;;;;;;;6.96;100.00;103025.78;10424771;28;20048;-66
2023/05/27 03:27:38;;;;;;;13.98;3.70;;;;;;;7.14;100.00;103023.66;10401838;28;22209;-67
2023/05/27 03:32:39;;;;;;;20.80;5.07;;;;;;;7.24;100.00;103027.03;10394185;28;20527;-69
2023/05/27 03:37:39;;;;;;;17.80;4.60;;;;;;;7.26;100.00;103010.41;10423191;28;20410;-69
2023/05/27 03:42:40;;;;;;;8.68;3.58;;;;;;;7.19;100.00;102995.72;10411748;28;20041;-67
2023/05/27 03:47:40;;;;;;;13.63;3.70;;;;;;;7.06;100.00;102988.91;10424084;28;20040;-67
2023/05/27 03:52:41;;;;;;;11.55;3.47;;;;;;;6.91;100.00;102990.72;10418682;28;20041;-67
2023/05/27 03:57:43;;;;;;;17.65;4.38;;;;;;;6.93;100.00;102998.75;10422065;28;20042;-68
2023/05/27 04:02:45;;;;;;;16.02;4.00;;;;;;;6.89;100.00;102995.53;10418805;28;20145;-67
2023/05/27 04:07:47;;;;;;;15.18;3.65;;;;;;;6.91;100.00;103007.16;10416599;28;20069;-69
2023/05/27 04:12:48;;;;;;;15.13;4.82;;;;;;;6.98;100.00;103002.66;10411497;28;20125;-67
2023/05/27 04:17:48;;;;;;;14.63;3.67;;;;;;;7.03;100.00;103002.16;10423802;28;20037;-66
2023/05/27 04:22:49;;;;;;;17.77;4.45;;;;;;;7.11;100.00;103012.19;10411353;28;20057;-67
2023/05/27 04:27:51;;;;;;;14.63;4.20;;;;;;;7.26;100.00;103004.94;10399244;28;20045;-67
2023/05/27 04:32:52;;;;;;;16.33;4.05;;;;;;;7.40;100.00;103012.38;10409506;28;20045;-67
2023/05/27 04:37:53;;;;;;;19.67;4.97;;;;;;;7.56;100.00;103000.44;10405805;28;20065;-64
2023/05/27 04:42:53;;;;;;;20.33;4.50;;;;;;;7.73;100.00;102995.72;10373012;28;20064;-67
2023/05/27 04:47:54;;;;;;;13.80;4.35;;;;;;;7.93;100.00;103003.41;10400172;28;20038;-67
2023/05/27 04:52:54;;;;;;;15.90;3.88;;;;;;;8.16;100.00;103012.47;10419829;28;20128;-67
2023/05/27 04:57:56;;;;;;;21.27;4.93;;;;;;;8.39;100.00;103004.19;10410495;28;20497;-67
2023/05/27 05:03:00;;;;;;;11.75;3.47;;;;;;;8.64;100.00;102995.69;10387010;28;20082;-68
2023/05/27 05:08:01;;;;;;;14.45;3.97;;;;;;;8.91;100.00;103005.16;10417116;28;20045;-66
2023/05/27 05:13:01;;;;;;;17.65;4.00;;;;;;;9.13;100.00;102988.72;10380935;28;20030;-66
2023/05/27 05:18:02;;;;;;;10.05;3.33;;;;;;;9.34;100.00;102991.50;10414924;28;20112;-67
2023/05/27 05:23:02;;;;;;;11.80;3.83;;;;;;;9.56;100.00;102989.63;10412617;28;20145;-66
2023/05/27 05:28:04;;;;;;;19.33;3.30;;;;;;;9.81;100.00;102973.59;10415403;28;20033;-67
2023/05/27 05:33:07;;;;;;;18.35;4.22;;;;;;;10.02;100.00;102963.59;10399753;28;20253;-67
2023/05/27 05:38:08;;;;;;;14.57;3.50;;;;;;;10.25;100.00;102964.22;10396259;28;20033;-67
2023/05/27 05:43:08;;;;;;;12.60;4.07;;;;;;;10.41;100.00;102962.22;10413087;28;20033;-66
2023/05/27 05:48:09;;;;;;;17.15;3.63;;;;;;;10.47;100.00;102956.75;10412355;28;20048;-67
2023/05/27 05:53:10;;;;;;;18.88;4.28;;;;;;;10.54;100.00;102956.78;10411534;28;20044;-67
2023/05/27 05:58:11;;;;;;;14.95;3.50;;;;;;;10.63;100.00;102960.25;10412564;28;20038;-66
2023/05/27 06:03:11;;;;;;;17.58;3.67;;;;;;;10.73;100.00;102959.84;10414708;28;20120;-66
2023/05/27 06:08:11;;;;;;;15.55;4.20;;;;;;;10.81;100.00;102967.94;10410331;28;20048;-67
2023/05/27 06:13:12;;;;;;;16.20;4.65;;;;;;;10.93;100.00;102960.78;10408701;28;20037;-67
2023/05/27 06:18:13;;;;;;;17.42;4.22;;;;;;;10.92;100.00;102956.34;10413438;28;20033;-66
2023/05/27 06:23:13;;;;;;;15.95;3.80;;;;;;;10.55;100.00;102908.91;10403140;28;20520;-66
2023/05/27 06:28:14;;;;;;;11.27;3.25;;;;;;;10.70;100.00;102941.81;10423990;28;20049;-64
2023/05/27 06:33:14;;;;;;;18.90;3.95;;;;;;;10.82;100.00;102953.13;10416782;28;20040;-67
2023/05/27 06:38:15;;;;;;;18.80;3.45;;;;;;;11.07;100.00;102950.69;10411278;28;20747;-68
2023/05/27 06:43:15;;;;;;;19.35;3.28;;;;;;;11.37;100.00;102936.53;10393412;28;20033;-67
2023/05/27 06:48:16;;;;;;;13.82;3.33;;;;;;;11.55;100.00;102942.28;10395488;28;20065;-68
2023/05/27 06:53:16;;;;;;;18.10;3.67;;;;;;;11.33;100.00;102927.84;10411803;28;20045;-68
2023/05/27 06:58:18;;;;;;;19.42;3.78;;;;;;;11.15;100.00;102933.09;10408424;28;20041;-67
2023/05/27 07:03:19;;;;;;;16.40;3.55;;;;;;;11.18;100.00;102936.28;10408504;28;20115;-68
2023/05/27 07:08:20;;;;;;;19.42;4.13;;;;;;;11.61;100.00;102924.06;10390523;28;20050;-68
2023/05/27 07:13:21;;;;;;;18.17;4.25;;;;;;;12.15;100.00;102920.22;10370815;28;20544;-67
2023/05/27 07:18:21;;;;;;;13.52;3.40;;;;;;;12.57;100.00;102918.03;10392715;28;20052;-67
2023/05/27 07:23:22;;;;;;;18.60;4.20;;;;;;;12.94;100.00;102896.19;10388868;28;20485;-68
2023/05/27 07:28:22;;;;;;;10.45;3.30;;;;;;;13.40;100.00;102899.75;10390089;28;20056;-67
2023/05/27 07:33:23;;;;;;;21.05;3.05;;;;;;;13.62;100.00;102900.19;10390503;28;20057;-68
2023/05/27 07:38:23;;;;;;;7.57;2.28;;;;;;;13.77;100.00;102899.88;10394684;28;20884;-67
2023/05/27 07:43:24;;;;;;;15.45;3.95;;;;;;;14.03;100.00;102898.78;10409411;28;20422;-70
2023/05/27 07:48:24;;;;;;;16.52;3.70;;;;;;;14.21;100.00;102893.25;10397755;28;20477;-66
2023/05/27 07:53:24;;;;;;;15.43;2.97;;;;;;;14.45;100.00;102882.31;10397624;28;20122;-69
2023/05/27 07:58:25;;;;;;;10.45;2.83;;;;;;;14.61;100.00;102878.97;10397263;28;20041;-67
2023/05/27 08:03:25;;;;;;;12.40;3.10;;;;;;;14.65;100.00;102869.09;10406746;28;20037;-67
2023/05/27 08:08:26;;;;;;;15.88;2.70;;;;;;;14.90;100.00;102871.78;10418263;28;20037;-67
2023/05/27 08:13:26;;;;;;;10.43;3.05;;;;;;;15.09;100.00;102857.84;10382909;28;20045;-67
2023/05/27 08:18:27;;;;;;;15.52;3.15;;;;;;;15.30;100.00;102845.34;10378471;28;20034;-70
2023/05/27 08:23:27;;;;;;;11.38;2.75;;;;;;;15.48;100.00;102838.84;10377927;28;20041;-68
2023/05/27 08:28:28;;;;;;;12.02;3.65;;;;;;;15.61;100.00;102827.53;10378178;28;20061;-68
2023/05/27 08:33:29;;;;;;;12.13;2.90;;;;;;;15.89;100.00;102818.50;10374751;28;20403;-67
2023/05/27 08:38:29;;;;;;;11.90;2.85;;;;;;;16.01;100.00;102799.03;10355335;28;20072;-64
2023/05/27 08:43:30;;;;;;;12.15;2.67;;;;;;;15.98;100.00;102793.13;10417089;28;20040;-67
2023/05/27 08:48:30;;;;;;;12.02;2.72;;;;;;;16.14;100.00;102809.91;10399447;28;20060;-70
2023/05/27 08:53:31;;;;;;;7.20;3.78;;;;;;;16.31;100.00;102793.28;10417823;28;20041;-68
2023/05/27 08:58:32;;;;;;;11.40;4.45;;;;;;;16.48;100.00;102764.72;10398301;28;20041;-68
2023/05/27 09:03:32;;;;;;;21.42;4.40;;;;;;;16.74;100.00;102785.50;10412772;28;20478;-69
2023/05/27 09:08:33;;;;;;;12.90;3.72;;;;;;;16.92;100.00;102763.06;10411156;28;20033;-68
2023/05/27 09:13:33;;;;;;;12.65;3.28;;;;;;;17.12;100.00;102770.09;10397443;28;20045;-69
2023/05/27 09:18:35;;;;;;;15.45;4.10;;;;;;;17.17;100.00;102750.69;10387973;28;20101;-68
2023/05/27 09:23:40;;;;;;;15.23;3.03;;;;;;;17.30;100.00;102757.84;10370939;28;20057;-65
2023/05/27 09:28:41;;;;;;;10.32;3.13;;;;;;;17.46;100.00;102756.97;10329676;28;20038;-68
2023/05/27 09:33:41;;;;;;;13.20;3.65;;;;;;;17.52;100.00;102749.56;10369050;28;20065;-67
2023/05/27 09:38:42;;;;;;;17.67;3.95;;;;;;;17.99;100.00;102751.09;10355475;28;20141;-68
2023/05/27 09:43:42;;;;;;;22.40;5.88;;;;;;;18.10;100.00;102750.94;10401331;28;20060;-67
2023/05/27 09:48:44;;;;;;;13.13;4.38;;;;;;;18.08;100.00;102738.38;10395618;28;20041;-67
2023/05/27 09:53:48;;;;;;;14.55;4.38;;;;;;;18.04;100.00;102731.63;10394177;28;20037;-67
2023/05/27 09:58:48;;;;;;;13.18;3.10;;;;;;;18.25;100.00;102714.06;10420427;28;20041;-70
2023/05/27 10:03:50;;;;;;;11.68;3.00;;;;;;;18.64;100.00;102711.09;10411905;28;20045;-68
2023/05/27 10:08:53;;;;;;;12.23;3.65;;;;;;;18.64;100.00;102702.72;10412205;28;20045;-70
2023/05/27 10:13:54;;;;;;;16.70;4.10;;;;;;;18.97;100.00;102716.72;10415341;28;20036;-67
2023/05/27 10:18:55;;;;;;;11.32;3.78;;;;;;;19.35;100.00;102710.03;10414220;28;20037;-66
2023/05/27 10:23:59;;;;;;;17.35;3.17;;;;;;;19.40;100.00;102698.88;10396299;28;20037;-67
2023/05/27 10:29:13;;;;;;;14.38;3.88;;;;;;;19.56;100.00;102674.69;10412500;28;20052;-70
2023/05/27 10:34:13;;;;;;;14.38;3.65;;;;;;;19.79;100.00;102690.19;10407624;28;20041;-68
2023/05/27 10:39:18;;;;;;;15.07;4.28;;;;;;;19.99;100.00;102672.66;10373451;28;20041;-66
2023/05/27 10:44:37;;;;;;;14.88;3.58;;;;;;;18.80;100.00;102538.28;10355217;28;20035;-70
2023/05/27 10:49:38;;;;;;;13.85;3.70;;;;;;;19.38;100.00;102664.78;10372990;28;20034;-68
2023/05/27 10:54:40;;;;;;;17.98;4.60;;;;;;;19.53;100.00;102653.72;10392487;28;20571;-71
2023/05/27 10:59:50;;;;;;;9.35;3.40;;;;;;;19.65;100.00;102627.50;10377391;28;20124;-69
2023/05/27 11:04:51;;;;;;;10.27;3.53;;;;;;;19.63;99.04;102641.72;10397428;28;20060;-70
2023/05/27 11:09:52;;;;;;;9.82;3.28;;;;;;;19.70;99.62;102627.50;10377705;28;20049;-70
2023/05/27 11:14:56;;;;;;;13.45;4.50;;;;;;;20.09;100.00;102616.78;10362876;28;20045;-70
2023/05/27 11:19:56;;;;;;;13.90;4.13;;;;;;;20.13;98.84;102611.44;10399251;28;20034;-74
2023/05/27 11:25:00;;;;;;;17.08;4.18;;;;;;;20.33;96.31;102597.50;10398016;28;20052;-74
2023/05/27 11:30:07;;;;;;;9.77;3.85;;;;;;;20.12;94.67;102587.41;10397638;28;20075;-73
2023/05/27 11:35:17;;;;;;;14.88;4.05;;;;;;;20.02;95.48;102579.84;10401362;28;20413;-70
2023/05/27 11:40:17;;;;;;;13.57;5.55;;;;;;;20.21;96.31;102585.72;10403842;28;20049;-69
2023/05/27 11:45:19;;;;;;;12.30;4.80;;;;;;;20.73;94.69;102567.00;10393153;28;20045;-70
2023/05/27 11:50:20;;;;;;;16.98;4.25;;;;;;;21.44;93.94;102559.56;10380659;28;20057;-71
2023/05/27 11:55:22;;;;;;;9.75;3.97;;;;;;;22.23;89.89;102540.84;10379022;28;20038;-70
2023/05/27 12:00:22;;;;;;;17.52;3.85;;;;;;;22.28;86.81;102532.41;10377803;28;20081;-70
2023/05/27 12:05:23;;;;;;;10.40;5.32;;;;;;;22.64;86.29;102534.03;10379265;28;20042;-73
2023/05/27 12:10:23;;;;;;;10.52;3.95;;;;;;;23.21;80.52;102504.16;10383953;28;20048;-73
2023/05/27 12:15:25;;;;;;;10.68;4.30;;;;;;;22.91;81.57;102511.00;10380052;28;20026;-70
2023/05/27 12:20:27;;;;;;;13.68;3.97;;;;;;;23.12;84.48;102506.81;10377150;28;20033;-71
2023/05/27 12:25:27;;;;;;;10.93;4.20;;;;;;;23.79;78.46;102480.59;10377366;28;20439;-70
2023/05/27 12:30:28;;;;;;;9.88;3.83;;;;;;;24.34;77.33;102482.78;10369485;28;20042;-69
2023/05/27 12:35:30;;;;;;;12.00;4.60;;;;;;;24.12;78.65;102483.44;10429086;28;20076;-69
2023/05/27 12:40:30;;;;;;;12.45;4.25;;;;;;;24.52;77.18;102475.44;10408172;28;20050;-70
2023/05/27 12:45:31;;;;;;;8.32;4.35;;;;;;;25.30;72.46;102461.44;10429772;28;20030;-70
2023/05/27 12:50:31;;;;;;;9.95;3.95;;;;;;;25.51;73.43;102459.84;10416698;28;20046;-70
2023/05/27 12:55:32;;;;;;;11.18;4.10;;;;;;;24.71;71.95;102453.66;10417365;28;20098;-67
2023/05/27 13:00:34;;;;;;;14.55;3.70;;;;;;;25.33;73.80;102444.72;10408317;28;20060;-70
2023/05/27 13:05:34;;;;;;;12.88;3.92;;;;;;;25.61;72.36;102446.63;10377209;28;20052;-71
2023/05/27 13:10:35;;;;;;;8.90;3.47;;;;;;;25.73;70.92;102435.59;10415479;28;20037;-70
2023/05/27 13:15:35;;;;;;;12.05;4.18;;;;;;;25.80;68.04;102424.72;10400379;28;20034;-71
2023/05/27 13:20:36;;;;;;;10.65;3.60;;;;;;;26.13;66.85;102416.00;10375861;28;20831;-72
2023/05/27 13:25:36;;;;;;;9.60;3.85;;;;;;;26.27;68.92;102416.72;10375498;28;20049;-72
2023/05/27 13:30:37;;;;;;;11.20;3.95;;;;;;;26.06;64.44;102399.50;10375240;28;20508;-67
2023/05/27 13:35:37;;;;;;;11.55;5.00;;;;;;;25.84;65.93;102414.47;10374120;28;20447;-71
2023/05/27 13:40:38;;;;;;;8.85;4.70;;;;;;;26.16;66.30;102406.88;10396463;28;20037;-69
2023/05/27 13:45:38;;;;;;;12.40;4.55;;;;;;;26.23;64.83;102393.16;10413137;28;20061;-71
2023/05/27 13:50:39;;;;;;;13.93;4.30;;;;;;;26.76;64.70;102394.19;10378656;28;20046;-70
2023/05/27 13:55:39;;;;;;;10.82;4.28;;;;;;;27.07;64.30;102381.94;10374864;28;20081;-72
2023/05/27 14:00:40;;;;;;;12.85;4.82;;;;;;;27.18;62.47;102371.97;10357235;28;20449;-70
2023/05/27 14:05:40;;;;;;;13.55;3.88;;;;;;;27.39;60.46;102360.88;10367329;28;20100;-71
2023/05/27 14:10:41;;;;;;;8.20;3.58;;;;;;;27.46;61.40;102354.69;10361044;28;20073;-70
2023/05/27 14:15:41;;;;;;;14.35;3.97;;;;;;;27.12;60.91;102354.34;10371964;28;20026;-70
2023/05/27 14:20:42;;;;;;;12.43;4.07;;;;;;;27.38;60.94;102353.53;10391125;28;20046;-68
2023/05/27 14:25:42;;;;;;;9.45;3.78;;;;;;;26.77;59.19;102339.34;10390905;28;20084;-70
2023/05/27 14:30:43;;;;;;;9.25;3.45;;;;;;;27.10;58.71;102269.06;10390029;28;20514;-70
2023/05/27 14:35:44;;;;;;;9.52;3.53;;;;;;;27.46;57.27;102304.63;10392673;28;20038;-69
2023/05/27 14:40:45;;;;;;;14.98;4.47;;;;;;;26.92;57.65;102309.78;10391258;28;20061;-70
2023/05/27 14:45:45;;;;;;;9.00;3.00;;;;;;;27.22;59.93;102309.94;10392073;28;20482;-71
2023/05/27 14:50:46;;;;;;;8.13;3.45;;;;;;;27.58;59.22;102313.25;10372918;28;20046;-71
2023/05/27 14:55:48;;;;;;;13.73;4.07;;;;;;;28.10;57.26;102294.47;10388764;28;20050;-71
2023/05/27 15:00:48;;;;;;;10.70;3.67;;;;;;;28.27;58.79;102305.69;10419572;28;20036;-70
2023/05/27 15:05:49;;;;;;;12.82;4.35;;;;;;;27.75;57.04;102294.56;10450063;28;20048;-69
2023/05/27 15:10:49;;;;;;;11.30;2.85;;;;;;;28.07;58.78;102297.94;10452882;28;20037;-69
2023/05/27 15:15:50;;;;;;;14.00;3.55;;;;;;;28.21;58.16;102297.72;10453583;28;20480;-74
2023/05/27 15:20:51;;;;;;;10.23;4.10;;;;;;;27.83;56.53;102288.03;10434547;28;20045;-71
2023/05/27 15:25:53;;;;;;;10.05;3.28;;;;;;;27.95;56.70;102288.19;10451940;28;20048;-71
2023/05/27 15:30:53;;;;;;;7.45;3.13;;;;;;;28.13;57.16;102277.63;10451300;28;20036;-73
2023/05/27 15:35:54;;;;;;;7.93;3.08;;;;;;;28.26;55.33;102263.53;10450243;28;20029;-72
2023/05/27 15:40:55;;;;;;;11.68;3.55;;;;;;;28.07;55.21;102259.16;10452048;28;20548;-71
2023/05/27 15:45:55;;;;;;;11.70;3.45;;;;;;;28.21;57.35;102273.06;10452641;28;20057;-71
2023/05/27 15:50:56;;;;;;;11.02;3.20;;;;;;;28.64;55.76;102263.50;10450767;28;20045;-72
2023/05/27 15:55:56;;;;;;;11.25;4.10;;;;;;;28.41;55.38;102253.63;10438749;28;20109;-73
2023/05/27 16:00:56;;;;;;;12.80;3.20;;;;;;;28.26;55.45;102236.06;10442121;28;20049;-71
2023/05/27 16:05:57;;;;;;;9.05;3.20;;;;;;;28.51;55.56;102244.78;10460066;28;20383;-69
2023/05/27 16:10:57;;;;;;;9.57;3.53;;;;;;;28.49;54.00;102232.94;10459998;28;20516;-71
2023/05/27 16:15:58;;;;;;;8.80;3.15;;;;;;;28.09;55.15;102234.19;10441098;28;20556;-70
2023/05/27 16:20:58;;;;;;;11.35;3.50;;;;;;;28.18;55.53;102222.78;10457326;28;20480;-71
2023/05/27 16:25:59;;;;;;;9.70;2.85;;;;;;;28.57;56.69;102217.91;10457844;28;20033;-70
2023/05/27 16:30:59;;;;;;;8.02;2.92;;;;;;;28.56;54.42;102210.56;10457155;28;20041;-72
2023/05/27 16:36:00;;;;;;;13.32;3.45;;;;;;;28.66;53.66;102207.31;10445567;28;20223;-70
2023/05/27 16:41:01;;;;;;;9.20;3.03;;;;;;;28.89;52.04;102190.75;10452052;28;20034;-69
2023/05/27 16:46:01;;;;;;;9.77;3.35;;;;;;;27.87;54.76;102211.81;10449592;28;20056;-69
2023/05/27 16:51:03;;;;;;;9.82;3.60;;;;;;;26.93;58.03;102207.69;10457812;28;20033;-69
2023/05/27 16:56:03;;;;;;;12.95;3.53;;;;;;;26.04;61.57;102209.09;10435242;28;20045;-69
2023/05/27 17:01:04;;;;;;;14.02;3.60;;;;;;;23.67;68.23;102241.19;10416913;28;20037;-70
2023/05/27 17:06:05;;;;;;;20.52;4.70;;;;;;;22.59;72.43;102245.78;10414776;28;20069;-71
2023/05/27 17:11:05;;;;;;;11.82;3.53;;;;;;;21.69;76.42;102248.28;10444196;28;20055;-72
2023/05/27 17:16:06;;;;;;;13.30;2.97;;;;;;;21.52;79.61;102242.31;10455115;28;20029;-72
2023/05/27 17:21:07;;;;;;;11.25;3.88;;;;;;;22.04;80.97;102218.19;10438025;28;20056;-70
2023/05/27 17:26:07;;;;;;;9.70;3.08;;;;;;;21.10;82.20;102230.59;10455889;28;20047;-70
2023/05/27 17:31:08;;;;;;;19.65;4.28;;;;;;;20.39;85.90;102248.69;10405898;28;20045;-70
2023/05/27 17:36:09;;;;;;;13.65;4.05;;;;;;;19.81;91.33;102248.38;10414434;28;20033;-68
2023/05/27 17:41:11;;;;;;;12.50;3.42;;;;;;;19.46;95.41;102250.06;10414562;28;20044;-69
2023/05/27 17:46:12;;;;;;;15.38;4.70;;;;;;;19.01;100.00;102251.75;10416683;28;20191;-68
2023/05/27 17:51:12;;;;;;;12.43;3.63;;;;;;;18.68;100.00;102257.53;10387616;28;20034;-70
2023/05/27 17:56:13;;;;;;;9.55;3.33;;;;;;;18.50;100.00;102255.25;10413241;28;20048;-70
2023/05/27 18:01:13;;;;;;;15.48;3.30;;;;;;;18.33;100.00;102252.69;10423353;28;20110;-67
2023/05/27 18:06:14;;;;;;;13.82;3.78;;;;;;;18.03;100.00;102261.78;10453788;28;20044;-67
2023/05/27 18:11:14;;;;;;;14.45;4.53;;;;;;;17.88;100.00;102255.00;10454015;28;20033;-68
2023/05/27 18:16:16;;;;;;;15.55;3.95;;;;;;;17.81;100.00;102262.72;10447986;28;20460;-70
2023/05/27 18:21:16;;;;;;;9.95;3.10;;;;;;;17.66;100.00;102254.28;10449427;28;21528;-68
2023/05/27 18:26:17;;;;;;;20.92;5.85;;;;;;;17.40;100.00;102261.59;10450991;28;20045;-68
2023/05/27 18:31:17;;;;;;;8.90;3.33;;;;;;;17.19;100.00;102261.44;10421280;28;20041;-69
2023/05/27 18:36:18;;;;;;;15.52;3.65;;;;;;;17.03;100.00;102271.59;10405179;28;20450;-69
2023/05/27 18:41:18;;;;;;;15.55;3.72;;;;;;;16.85;100.00;102274.75;10430817;28;20052;-68
2023/05/27 18:46:19;;;;;;;16.13;3.70;;;;;;;16.66;100.00;102283.44;10420643;28;20053;-68
2023/05/27 18:51:20;;;;;;;13.48;3.42;;;;;;;16.47;100.00;102274.56;10423781;28;20048;-68
2023/05/27 18:56:21;;;;;;;16.77;3.70;;;;;;;16.27;100.00;102279.91;10418422;28;20033;-68
2023/05/27 19:01:21;;;;;;;12.50;3.08;;;;;;;16.10;100.00;102277.16;10448883;28;20037;-68
2023/05/27 19:06:22;;;;;;;15.25;3.60;;;;;;;15.94;100.00;102268.63;10415782;28;20045;-66
2023/05/27 19:11:22;;;;;;;17.98;4.47;;;;;;;15.75;100.00;102278.38;10442264;28;20037;-69
2023/05/27 19:16:23;;;;;;;11.98;3.80;;;;;;;15.52;100.00;102273.81;10448135;28;20437;-69
2023/05/27 19:21:24;;;;;;;16.80;3.60;;;;;;;15.44;100.00;102288.09;10448582;28;20048;-69
2023/05/27 19:26:25;;;;;;;14.70;3.60;;;;;;;15.25;100.00;102296.66;10438863;28;20037;-68
2023/05/27 19:31:25;;;;;;;11.77;4.28;;;;;;;15.06;100.00;102290.53;10451492;28;20497;-69
2023/05/27 19:36:27;;;;;;;16.10;4.07;;;;;;;14.81;100.00;102292.84;10459609;28;20037;-70
2023/05/27 19:41:27;;;;;;;13.15;4.10;;;;;;;14.68;100.00;102303.13;10458876;28;20171;-68
2023/05/27 19:46:28;;;;;;;14.68;4.38;;;;;;;14.54;100.00;102301.69;10460650;28;20044;-69
2023/05/27 19:51:28;;;;;;;19.55;4.03;;;;;;;14.23;100.00;102289.16;10458817;28;20029;-69
2023/05/27 19:56:29;;;;;;;17.08;3.53;;;;;;;14.15;100.00;102293.13;10457259;28;20083;-69
2023/05/27 20:01:30;;;;;;;16.23;3.58;;;;;;;13.98;100.00;102292.22;10417148;28;20060;-69
2023/05/27 20:06:33;;;;;;;16.55;3.33;;;;;;;13.92;100.00;102300.38;10404738;28;20033;-70
2023/05/27 20:11:33;;;;;;;18.42;4.00;;;;;;;13.75;100.00;102304.97;10427011;28;20049;-69
2023/05/27 20:16:34;;;;;;;16.75;4.30;;;;;;;13.65;100.00;102301.97;10451637;28;20060;-70
2023/05/27 20:21:35;;;;;;;12.98;4.45;;;;;;;13.56;100.00;102300.63;10441250;28;20040;-69
2023/05/27 20:26:35;;;;;;;15.35;4.05;;;;;;;13.46;100.00;102307.59;10459641;28;20036;-70
2023/05/27 20:31:36;;;;;;;20.08;3.83;;;;;;;13.37;100.00;102302.66;10457413;28;20033;-69
2023/05/27 20:36:36;;;;;;;7.95;3.17;;;;;;;13.23;100.00;102304.75;10440156;28;20040;-69
2023/05/27 20:41:36;;;;;;;18.48;3.70;;;;;;;13.11;100.00;102294.50;10456542;28;20040;-69
2023/05/27 20:46:38;;;;;;;14.85;4.05;;;;;;;13.02;100.00;102304.25;10448774;28;20029;-68
2023/05/27 20:51:39;;;;;;;15.45;4.93;;;;;;;12.93;100.00;102308.41;10454489;28;20036;-68
2023/05/27 20:56:40;;;;;;;15.82;3.80;;;;;;;12.80;100.00;102303.09;10460286;28;20037;-68
2023/05/27 21:01:42;;;;;;;12.65;4.05;;;;;;;12.68;100.00;102303.84;10440827;28;20127;-68
2023/05/27 21:06:42;;;;;;;17.25;4.10;;;;;;;12.58;100.00;102298.03;10429018;28;20032;-68
2023/05/27 21:11:43;;;;;;;15.07;4.20;;;;;;;12.48;100.00;102289.47;10445588;28;20036;-69
2023/05/27 21:16:43;;;;;;;15.73;4.22;;;;;;;12.39;100.00;102288.94;10442787;28;20033;-68
2023/05/27 21:21:44;;;;;;;12.52;3.70;;;;;;;12.26;100.00;102297.41;10455299;28;20059;-68
2023/05/27 21:26:45;;;;;;;20.67;5.55;;;;;;;12.15;100.00;102293.47;10434183;28;20070;-68
2023/05/27 21:31:45;;;;;;;11.35;3.78;;;;;;;12.10;100.00;102296.09;10443447;28;20423;-69
2023/05/27 21:36:46;;;;;;;11.52;4.05;;;;;;;11.35;100.00;102180.34;10438464;28;20028;-68
2023/05/27 21:41:47;;;;;;;17.80;4.78;;;;;;;11.89;100.00;102284.44;10405860;28;20438;-70
2023/05/27 21:46:48;;;;;;;17.58;3.50;;;;;;;11.62;100.00;102258.16;10433991;28;20037;-69
2023/05/27 21:51:50;;;;;;;16.05;4.10;;;;;;;11.71;100.00;102267.81;10452800;28;20037;-69
2023/05/27 21:56:52;;;;;;;12.38;3.83;;;;;;;11.65;100.00;102277.84;10445246;28;20402;-68
2023/05/27 22:01:53;;;;;;;15.27;4.00;;;;;;;11.57;100.00;102288.34;10457636;28;20056;-67
2023/05/27 22:06:54;;;;;;;15.55;5.32;;;;;;;11.50;100.00;102282.88;10434609;28;20045;-68
2023/05/27 22:11:55;;;;;;;16.70;5.22;;;;;;;11.37;100.00;102267.31;10410845;28;20036;-67
2023/05/27 22:16:55;;;;;;;17.30;4.18;;;;;;;11.34;100.00;102262.22;10445910;28;20064;-68
2023/05/27 22:21:56;;;;;;;11.68;3.33;;;;;;;11.24;100.00;102251.69;10453831;28;20037;-67
2023/05/27 22:26:56;;;;;;;18.13;3.80;;;;;;;11.14;100.00;102250.53;10445999;28;20072;-70
2023/05/27 22:31:57;;;;;;;16.05;4.40;;;;;;;10.97;100.00;102248.31;10436784;28;20108;-70
2023/05/27 22:36:57;;;;;;;19.30;3.70;;;;;;;10.82;100.00;102245.03;10419605;28;20042;-70
2023/05/27 22:41:58;;;;;;;14.70;4.25;;;;;;;10.64;100.00;102254.88;10450031;28;20033;-68